Terminal Aerodrome Forecast
Issued by NWS

Home | Current Version | Previous Version | Text Only | Print | Product List | Glossary On
Versions: 1 2 3 4 5 6 7 8 9 10 11 12 13 14
000
FTUS45 KABQ 301200 RRA
TAFROW
TAF
KROW 301213Z 3012/3112 09009KT P6SM VCSH SCT030 OVC050
     FM301600 12006KT 4SM -RASN BR SCT015 BKN025
     FM302100 10006KT 5SM -RA BR BKN015
     FM310300 14006KT 3SM -SN BR OVC009=

USA.gov is the U.S. government's official web portal to all federal, state and local government web resources and services.